createdAt,value
2023-04-08T00:00:44.560Z,100.00
2023-04-08T00:03:12.496Z,100.00
2023-04-08T00:05:40.336Z,100.00
2023-04-08T00:08:08.357Z,100.00
2023-04-08T00:10:36.541Z,100.00
2023-04-08T00:13:04.290Z,100.00
2023-04-08T00:15:34.451Z,100.00
2023-04-08T00:18:02.145Z,100.00
2023-04-08T00:20:29.959Z,100.00
2023-04-08T00:22:57.655Z,100.00
2023-04-08T00:25:25.974Z,100.00
2023-04-08T00:27:53.912Z,100.00
2023-04-08T00:30:21.750Z,100.00
2023-04-08T00:32:51.088Z,98.03
2023-04-08T00:35:18.843Z,95.85
2023-04-08T00:37:47.994Z,95.09
2023-04-08T00:40:15.789Z,92.74
2023-04-08T00:42:43.765Z,91.82
2023-04-08T00:45:12.503Z,91.90
2023-04-08T00:47:40.562Z,92.05
2023-04-08T00:50:11.744Z,92.62
2023-04-08T00:52:39.552Z,92.03
2023-04-08T00:55:08.094Z,92.01
2023-04-08T00:57:36.476Z,89.77
2023-04-08T01:00:06.456Z,90.28
2023-04-08T01:02:40.588Z,90.12
2023-04-08T01:05:14.417Z,92.61
2023-04-08T01:07:46.851Z,92.51
2023-04-08T01:10:18.131Z,90.97
2023-04-08T01:12:51.520Z,90.95
2023-04-08T01:15:19.492Z,91.66
2023-04-08T01:17:49.048Z,94.33
2023-04-08T01:20:20.264Z,92.52
2023-04-08T01:23:09.471Z,96.37
2023-04-08T01:25:39.090Z,97.63
2023-04-08T01:28:12.373Z,97.92
2023-04-08T01:30:41.780Z,95.37
2023-04-08T01:33:13.230Z,95.02
2023-04-08T01:35:41.158Z,95.42
2023-04-08T01:38:10.946Z,95.73
2023-04-08T01:40:41.483Z,96.14
2023-04-08T01:43:12.869Z,95.92
2023-04-08T01:45:40.589Z,97.51
2023-04-08T01:48:09.737Z,98.33
2023-04-08T01:50:37.836Z,98.16
2023-04-08T01:53:06.857Z,99.62
2023-04-08T01:55:36.628Z,99.90
2023-04-08T01:58:07.055Z,100.00
2023-04-08T02:00:37.676Z,100.00
2023-04-08T02:03:07.697Z,100.00
2023-04-08T02:05:35.830Z,100.00
2023-04-08T02:08:03.471Z,100.00
2023-04-08T02:10:31.147Z,100.00
2023-04-08T02:12:59.885Z,100.00
2023-04-08T02:15:30.100Z,100.00
2023-04-08T02:18:07.880Z,100.00
2023-04-08T02:20:39.924Z,100.00
2023-04-08T02:23:11.824Z,100.00
2023-04-08T02:25:43.237Z,100.00
2023-04-08T02:28:12.398Z,100.00
2023-04-08T02:30:44.111Z,100.00
2023-04-08T02:33:14.714Z,100.00
2023-04-08T02:35:43.212Z,100.00
2023-04-08T02:38:11.766Z,100.00
2023-04-08T02:40:39.843Z,100.00
2023-04-08T02:43:07.606Z,100.00
2023-04-08T02:45:41.965Z,100.00
2023-04-08T02:48:10.192Z,100.00
2023-04-08T02:50:39.902Z,100.00
2023-04-08T02:53:07.642Z,100.00
2023-04-08T02:55:35.367Z,100.00
2023-04-08T02:58:03.116Z,100.00
2023-04-08T03:00:30.970Z,100.00
2023-04-08T03:02:58.757Z,100.00
2023-04-08T03:05:28.476Z,100.00
2023-04-08T03:07:57.563Z,100.00
2023-04-08T03:10:25.312Z,99.52
2023-04-08T03:12:53.130Z,98.88
2023-04-08T03:15:20.914Z,98.58
2023-04-08T03:17:48.748Z,98.21
2023-04-08T03:20:16.414Z,98.38
2023-04-08T03:22:44.028Z,98.55
2023-04-08T03:25:13.051Z,98.11
2023-04-08T03:27:40.677Z,98.71
2023-04-08T03:30:09.513Z,98.69
2023-04-08T03:32:37.490Z,98.80
2023-04-08T03:35:05.630Z,99.17
2023-04-08T03:37:33.660Z,99.20
2023-04-08T03:40:01.458Z,99.43
2023-04-08T03:42:30.475Z,99.82
2023-04-08T03:44:58.552Z,100.00
2023-04-08T03:47:26.452Z,100.00
2023-04-08T03:49:54.507Z,100.00
2023-04-08T03:52:22.168Z,100.00
2023-04-08T03:54:49.845Z,100.00
2023-04-08T03:57:17.653Z,100.00
2023-04-08T03:59:46.664Z,100.00
2023-04-08T04:02:14.520Z,100.00
2023-04-08T04:04:42.666Z,100.00
2023-04-08T04:07:10.534Z,100.00
2023-04-08T04:09:38.479Z,100.00
2023-04-08T04:12:06.659Z,100.00
2023-04-08T04:14:34.434Z,100.00
2023-04-08T04:17:03.774Z,100.00
2023-04-08T04:19:32.257Z,100.00
2023-04-08T04:22:00.034Z,100.00
2023-04-08T04:24:27.787Z,100.00
2023-04-08T04:26:55.565Z,100.00
2023-04-08T04:29:23.479Z,100.00
2023-04-08T04:31:51.343Z,100.00
2023-04-08T04:34:20.384Z,98.82
2023-04-08T04:36:48.149Z,97.40
2023-04-08T04:39:15.942Z,97.75
2023-04-08T04:41:44.377Z,97.42
2023-04-08T04:44:12.097Z,97.62
2023-04-08T04:46:39.981Z,97.81
2023-04-08T04:49:07.667Z,97.68
2023-04-08T04:51:36.880Z,98.52
2023-04-08T04:54:04.625Z,98.68
2023-04-08T04:56:32.375Z,98.34
2023-04-08T04:59:00.188Z,98.36
2023-04-08T05:01:28.973Z,97.81
2023-04-08T05:03:56.904Z,96.50
2023-04-08T05:06:24.685Z,97.12
2023-04-08T05:08:54.049Z,96.35
2023-04-08T05:11:22.735Z,96.85
2023-04-08T05:13:50.559Z,96.96
2023-04-08T05:16:18.431Z,96.62
2023-04-08T05:18:46.190Z,96.72
2023-04-08T05:21:14.011Z,96.69
2023-04-08T05:23:41.784Z,96.36
2023-04-08T05:26:11.315Z,96.51
2023-04-08T05:28:39.065Z,96.55
2023-04-08T05:31:06.862Z,96.58
2023-04-08T05:33:34.504Z,94.78
2023-04-08T05:36:02.778Z,94.01
2023-04-08T05:38:30.516Z,94.04
2023-04-08T05:40:58.145Z,95.41
2023-04-08T05:43:27.369Z,95.34
2023-04-08T05:45:55.196Z,95.35
2023-04-08T05:48:23.138Z,96.17
2023-04-08T05:50:51.038Z,98.95
2023-04-08T05:53:18.893Z,100.00
2023-04-08T05:55:46.654Z,100.00
2023-04-08T05:58:14.518Z,100.00
2023-04-08T06:00:43.617Z,100.00
2023-04-08T06:03:11.739Z,100.00
2023-04-08T06:05:39.700Z,100.00
2023-04-08T06:08:07.688Z,100.00
2023-04-08T06:10:35.632Z,100.00
2023-04-08T06:13:03.645Z,100.00
2023-04-08T06:15:32.577Z,100.00
2023-04-08T06:18:01.732Z,100.00
2023-04-08T06:20:30.288Z,100.00
2023-04-08T06:22:57.930Z,100.00
2023-04-08T06:25:25.721Z,100.00
2023-04-08T06:27:53.339Z,100.00
2023-04-08T06:30:21.855Z,100.00
2023-04-08T06:32:49.727Z,100.00
2023-04-08T06:35:19.285Z,100.00
2023-04-08T06:37:47.087Z,100.00
2023-04-08T06:40:14.848Z,100.00
2023-04-08T06:42:44.476Z,100.00
2023-04-08T06:45:12.715Z,100.00
2023-04-08T06:47:40.624Z,100.00
2023-04-08T06:50:09.121Z,100.00
2023-04-08T06:52:38.253Z,100.00
2023-04-08T06:55:06.913Z,100.00
2023-04-08T06:57:34.785Z,100.00
2023-04-08T07:00:02.649Z,100.00
2023-04-08T07:02:30.646Z,100.00
2023-04-08T07:04:58.450Z,100.00
2023-04-08T07:07:26.246Z,100.00
2023-04-08T07:09:55.387Z,100.00
2023-04-08T07:12:23.135Z,100.00
2023-04-08T07:14:50.933Z,100.00
2023-04-08T07:17:18.570Z,100.00
2023-04-08T07:19:47.130Z,100.00
2023-04-08T07:22:14.799Z,100.00
2023-04-08T07:24:43.373Z,100.00
2023-04-08T07:27:12.388Z,100.00
2023-04-08T07:29:40.011Z,100.00
2023-04-08T07:32:08.216Z,100.00
2023-04-08T07:34:36.021Z,100.00
2023-04-08T07:37:03.885Z,100.00
2023-04-08T07:39:31.575Z,100.00
2023-04-08T07:41:59.249Z,100.00
2023-04-08T07:44:28.277Z,100.00
2023-04-08T07:46:55.901Z,100.00
2023-04-08T07:49:23.693Z,100.00
2023-04-08T07:51:51.547Z,100.00
2023-04-08T07:54:19.145Z,100.00
2023-04-08T07:56:46.819Z,100.00
2023-04-08T07:59:14.639Z,100.00
2023-04-08T08:01:43.738Z,100.00
2023-04-08T08:04:11.773Z,100.00
2023-04-08T08:06:39.593Z,100.00
2023-04-08T08:09:07.248Z,100.00
2023-04-08T08:11:34.921Z,100.00
2023-04-08T08:14:04.553Z,100.00
2023-04-08T08:16:33.692Z,100.00
2023-04-08T08:19:04.449Z,100.00
2023-04-08T08:21:32.063Z,100.00
2023-04-08T08:24:00.666Z,100.00
2023-04-08T08:26:28.621Z,100.00
2023-04-08T08:28:56.329Z,100.00
2023-04-08T08:31:24.001Z,100.00
2023-04-08T08:33:51.940Z,100.00
2023-04-08T08:36:21.201Z,100.00
2023-04-08T08:38:49.065Z,100.00
2023-04-08T08:41:16.713Z,100.00
2023-04-08T08:43:45.179Z,100.00
2023-04-08T08:46:13.017Z,100.00
2023-04-08T08:48:40.818Z,100.00
2023-04-08T08:51:10.421Z,100.00
2023-04-08T08:53:45.198Z,100.00
2023-04-08T08:56:18.449Z,100.00
2023-04-08T08:58:47.748Z,100.00
2023-04-08T09:01:35.676Z,100.00
2023-04-08T09:04:15.829Z,100.00
2023-04-08T09:06:44.075Z,100.00
2023-04-08T09:09:13.265Z,100.00
2023-04-08T09:11:42.563Z,100.00
2023-04-08T09:14:23.430Z,100.00
2023-04-08T09:16:51.959Z,100.00
2023-04-08T09:19:20.440Z,100.00
2023-04-08T09:22:05.884Z,100.00
2023-04-08T09:24:35.737Z,100.00
2023-04-08T09:27:03.726Z,100.00
2023-04-08T09:29:34.300Z,100.00
2023-04-08T09:32:03.639Z,100.00
2023-04-08T09:34:34.371Z,100.00
2023-04-08T09:37:02.405Z,100.00
2023-04-08T09:39:30.694Z,100.00
2023-04-08T09:42:01.204Z,100.00
2023-04-08T09:44:30.410Z,100.00
2023-04-08T09:47:09.485Z,100.00
2023-04-08T09:49:43.313Z,100.00
2023-04-08T09:52:12.974Z,100.00
2023-04-08T09:54:49.163Z,100.00
2023-04-08T09:57:26.680Z,100.00
2023-04-08T10:00:09.884Z,100.00
2023-04-08T10:02:47.153Z,100.00
2023-04-08T10:05:16.963Z,100.00
2023-04-08T10:07:45.098Z,100.00
2023-04-08T10:10:13.240Z,100.00
2023-04-08T10:12:43.076Z,100.00
2023-04-08T10:15:25.132Z,100.00
2023-04-08T10:17:54.291Z,100.00
2023-04-08T10:20:45.207Z,100.00
2023-04-08T10:23:14.484Z,100.00
2023-04-08T10:25:43.433Z,100.00
2023-04-08T10:28:36.725Z,100.00
2023-04-08T10:31:04.670Z,100.00
2023-04-08T10:33:34.630Z,100.00
2023-04-08T10:36:11.323Z,100.00
2023-04-08T10:38:39.639Z,100.00
2023-04-08T10:41:07.377Z,100.00
2023-04-08T10:43:37.593Z,100.00
2023-04-08T10:46:06.477Z,100.00
2023-04-08T10:48:34.246Z,100.00
2023-04-08T10:51:03.723Z,100.00
2023-04-08T10:53:33.657Z,100.00
2023-04-08T10:56:08.581Z,100.00
2023-04-08T10:58:37.790Z,100.00
2023-04-08T11:01:07.765Z,100.00
2023-04-08T11:03:37.275Z,100.00
2023-04-08T11:06:06.122Z,100.00
2023-04-08T11:08:34.745Z,100.00
2023-04-08T11:11:02.686Z,100.00
2023-04-08T11:13:30.790Z,100.00
2023-04-08T11:16:00.960Z,100.00
2023-04-08T11:18:28.899Z,100.00
2023-04-08T11:20:58.356Z,100.00
2023-04-08T11:23:27.967Z,100.00
2023-04-08T11:25:56.687Z,100.00
2023-04-08T11:28:24.702Z,100.00
2023-04-08T11:30:53.402Z,100.00
2023-04-08T11:33:26.304Z,100.00
2023-04-08T11:35:54.275Z,100.00
2023-04-08T11:38:24.545Z,100.00
2023-04-08T11:40:55.522Z,100.00
2023-04-08T11:43:23.913Z,100.00
2023-04-08T11:45:51.938Z,100.00
2023-04-08T11:48:19.924Z,100.00
2023-04-08T11:50:50.710Z,100.00
2023-04-08T11:53:19.708Z,100.00
2023-04-08T11:55:48.473Z,100.00
2023-04-08T11:58:16.430Z,100.00
2023-04-08T12:00:45.559Z,100.00
2023-04-08T12:03:14.337Z,100.00
2023-04-08T12:05:42.518Z,100.00
2023-04-08T12:08:11.668Z,100.00
2023-04-08T12:10:39.391Z,100.00
2023-04-08T12:13:07.063Z,100.00
2023-04-08T12:15:34.781Z,100.00
2023-04-08T12:18:02.544Z,100.00
2023-04-08T12:20:45.680Z,100.00
2023-04-08T12:23:14.675Z,100.00
2023-04-08T12:25:42.357Z,100.00
2023-04-08T12:28:11.578Z,100.00
2023-04-08T12:30:39.216Z,100.00
2023-04-08T12:33:07.186Z,100.00
2023-04-08T12:35:34.846Z,100.00
2023-04-08T12:38:02.528Z,100.00
2023-04-08T12:40:31.491Z,100.00
2023-04-08T12:42:59.136Z,100.00
2023-04-08T12:45:26.765Z,100.00
2023-04-08T12:47:54.542Z,100.00
2023-04-08T12:50:23.540Z,100.00
2023-04-08T12:52:51.523Z,100.00
2023-04-08T12:55:19.248Z,100.00
2023-04-08T12:57:48.392Z,100.00
2023-04-08T13:00:16.614Z,100.00
2023-04-08T13:02:44.784Z,100.00
2023-04-08T13:05:12.561Z,100.00
2023-04-08T13:07:40.505Z,100.00
2023-04-08T13:10:09.616Z,100.00
2023-04-08T13:12:40.132Z,100.00
2023-04-08T13:15:10.922Z,100.00
2023-04-08T13:17:38.623Z,100.00
2023-04-08T13:20:09.610Z,100.00
2023-04-08T13:22:37.425Z,100.00
2023-04-08T13:25:06.576Z,100.00
2023-04-08T13:27:34.413Z,100.00
2023-04-08T13:30:02.096Z,100.00
2023-04-08T13:32:31.200Z,100.00
2023-04-08T13:34:58.832Z,100.00
2023-04-08T13:37:27.314Z,100.00
2023-04-08T13:39:55.170Z,100.00
2023-04-08T13:42:22.889Z,100.00
2023-04-08T13:44:50.685Z,100.00
2023-04-08T13:47:18.411Z,100.00
2023-04-08T13:49:47.498Z,100.00
2023-04-08T13:52:15.638Z,100.00
2023-04-08T13:54:43.353Z,100.00
2023-04-08T13:57:11.024Z,100.00
2023-04-08T13:59:38.723Z,100.00
2023-04-08T14:02:06.661Z,100.00
2023-04-08T14:04:34.613Z,100.00
2023-04-08T14:07:03.855Z,100.00
2023-04-08T14:09:31.629Z,100.00
2023-04-08T14:11:59.477Z,100.00
2023-04-08T14:14:27.085Z,100.00
2023-04-08T14:16:54.916Z,97.42
2023-04-08T14:19:22.582Z,98.30
2023-04-08T14:21:50.554Z,97.14
2023-04-08T14:24:19.907Z,96.87
2023-04-08T14:26:47.826Z,92.78
2023-04-08T14:29:15.535Z,91.51
2023-04-08T14:31:43.232Z,89.31
2023-04-08T14:34:10.928Z,90.71
2023-04-08T14:36:38.639Z,90.40
2023-04-08T14:39:06.356Z,87.91
2023-04-08T14:41:35.576Z,87.44
2023-04-08T14:44:04.338Z,87.41
2023-04-08T14:46:32.601Z,86.28
2023-04-08T14:49:01.038Z,88.06
2023-04-08T14:51:28.748Z,86.00
2023-04-08T14:53:56.409Z,84.83
2023-04-08T14:56:24.053Z,84.60
2023-04-08T14:58:53.226Z,87.81
2023-04-08T15:01:21.192Z,87.85
2023-04-08T15:03:49.013Z,83.93
2023-04-08T15:06:17.762Z,84.57
2023-04-08T15:08:45.895Z,84.99
2023-04-08T15:11:13.758Z,84.84
2023-04-08T15:13:41.618Z,86.17
2023-04-08T15:16:10.743Z,86.49
2023-04-08T15:18:38.474Z,85.98
2023-04-08T15:21:06.370Z,86.71
2023-04-08T15:23:34.087Z,85.28
2023-04-08T15:26:03.477Z,87.03
2023-04-08T15:28:31.281Z,85.27
2023-04-08T15:30:59.070Z,86.86
2023-04-08T15:33:28.166Z,85.93
2023-04-08T15:35:57.496Z,86.14
2023-04-08T15:38:26.639Z,87.16
2023-04-08T15:40:54.570Z,89.20
2023-04-08T15:43:22.247Z,91.02
2023-04-08T15:45:49.967Z,91.48
2023-04-08T15:48:18.812Z,91.25
2023-04-08T15:50:47.901Z,91.66
2023-04-08T15:53:15.604Z,90.54
2023-04-08T15:55:43.257Z,90.18
2023-04-08T15:58:11.037Z,89.42
2023-04-08T16:00:38.754Z,88.11
2023-04-08T16:03:08.696Z,90.37
2023-04-08T16:05:39.136Z,91.92
2023-04-08T16:08:08.567Z,92.20
2023-04-08T16:10:36.500Z,92.56
2023-04-08T16:13:04.278Z,93.32
2023-04-08T16:15:31.936Z,93.14
2023-04-08T16:17:59.609Z,93.89
2023-04-08T16:20:28.694Z,94.72
2023-04-08T16:22:56.470Z,94.27
2023-04-08T16:25:27.168Z,94.65
2023-04-08T16:27:55.913Z,94.86
2023-04-08T16:30:23.628Z,95.89
2023-04-08T16:32:51.303Z,95.64
2023-04-08T16:35:20.482Z,95.01
2023-04-08T16:37:48.139Z,95.25
2023-04-08T16:40:15.931Z,95.01
2023-04-08T16:42:45.067Z,94.88
2023-04-08T16:45:12.991Z,95.26
2023-04-08T16:47:41.731Z,95.24
2023-04-08T16:50:10.113Z,95.36
2023-04-08T16:52:37.744Z,95.72
2023-04-08T16:55:05.892Z,93.94
2023-04-08T16:57:33.613Z,92.99
2023-04-08T17:00:02.712Z,92.05
2023-04-08T17:02:31.297Z,93.70
2023-04-08T17:04:58.970Z,93.67
2023-04-08T17:07:28.113Z,94.17
2023-04-08T17:09:56.168Z,93.28
2023-04-08T17:12:23.917Z,92.15
2023-04-08T17:14:51.674Z,92.51
2023-04-08T17:17:20.711Z,93.98
2023-04-08T17:19:48.512Z,94.23
2023-04-08T17:22:16.471Z,96.04
2023-04-08T17:24:47.811Z,97.51
2023-04-08T17:27:15.841Z,97.58
2023-04-08T17:29:43.609Z,98.06
2023-04-08T17:32:12.469Z,99.15
2023-04-08T17:34:41.856Z,100.00
2023-04-08T17:37:10.348Z,100.00
2023-04-08T17:39:40.843Z,100.00
2023-04-08T17:42:08.811Z,100.00
2023-04-08T17:44:36.600Z,100.00
2023-04-08T17:47:04.410Z,100.00
2023-04-08T17:49:32.070Z,100.00
2023-04-08T17:52:01.055Z,100.00
2023-04-08T17:54:28.774Z,100.00
2023-04-08T17:56:56.415Z,100.00
2023-04-08T17:59:24.134Z,100.00
2023-04-08T18:01:52.009Z,100.00
2023-04-08T18:04:21.004Z,100.00
2023-04-08T18:06:48.741Z,100.00
2023-04-08T18:09:17.822Z,100.00
2023-04-08T18:11:45.530Z,100.00
2023-04-08T18:14:13.509Z,100.00
2023-04-08T18:16:41.379Z,100.00
2023-04-08T18:19:09.048Z,100.00
2023-04-08T18:21:36.687Z,100.00
2023-04-08T18:24:04.448Z,100.00
2023-04-08T18:26:33.462Z,100.00
2023-04-08T18:29:01.173Z,100.00
2023-04-08T18:31:28.836Z,100.00
2023-04-08T18:33:56.800Z,100.00
2023-04-08T18:36:24.436Z,100.00
2023-04-08T18:38:52.221Z,100.00
2023-04-08T18:41:20.985Z,100.00
2023-04-08T18:43:50.302Z,100.00
2023-04-08T18:46:18.632Z,100.00
2023-04-08T18:48:46.432Z,100.00
2023-04-08T18:51:14.204Z,100.00
2023-04-08T18:53:41.893Z,100.00
2023-04-08T18:56:15.403Z,100.00
2023-04-08T18:58:43.273Z,100.00
2023-04-08T19:01:12.524Z,100.00
2023-04-08T19:03:40.491Z,100.00
2023-04-08T19:06:08.855Z,100.00
2023-04-08T19:08:36.716Z,100.00
2023-04-08T19:11:04.767Z,100.00
2023-04-08T19:13:32.585Z,100.00
2023-04-08T19:16:00.504Z,100.00
2023-04-08T19:18:29.571Z,100.00
2023-04-08T19:20:57.278Z,100.00
2023-04-08T19:23:24.920Z,100.00
2023-04-08T19:25:52.717Z,100.00
2023-04-08T19:28:20.633Z,100.00
2023-04-08T19:30:50.881Z,100.00
2023-04-08T19:33:18.725Z,100.00
2023-04-08T19:35:49.270Z,100.00
2023-04-08T19:38:16.959Z,100.00
2023-04-08T19:40:44.602Z,100.00
2023-04-08T19:43:12.261Z,100.00
2023-04-08T19:45:39.957Z,100.00
2023-04-08T19:48:07.726Z,100.00
2023-04-08T19:50:38.347Z,100.00
2023-04-08T19:53:07.514Z,100.00
2023-04-08T19:55:37.341Z,100.00
2023-04-08T19:58:05.314Z,100.00
2023-04-08T20:00:33.280Z,100.00
2023-04-08T20:03:01.311Z,100.00
2023-04-08T20:05:29.193Z,100.00
2023-04-08T20:07:56.967Z,100.00
2023-04-08T20:10:28.502Z,100.00
2023-04-08T20:12:56.280Z,100.00
2023-04-08T20:15:25.446Z,100.00
2023-04-08T20:17:54.010Z,100.00
2023-04-08T20:20:22.829Z,100.00
2023-04-08T20:22:50.791Z,100.00
2023-04-08T20:25:18.727Z,100.00
2023-04-08T20:27:47.856Z,100.00
2023-04-08T20:30:15.795Z,100.00
2023-04-08T20:32:43.594Z,100.00
2023-04-08T20:35:11.854Z,100.00
2023-04-08T20:37:39.719Z,100.00
2023-04-08T20:40:08.999Z,100.00
2023-04-08T20:42:38.528Z,100.00
2023-04-08T20:45:09.445Z,100.00
2023-04-08T20:47:37.174Z,100.00
2023-04-08T20:50:05.322Z,100.00
2023-04-08T20:52:34.254Z,100.00
2023-04-08T20:55:02.043Z,100.00
2023-04-08T20:57:29.931Z,100.00
2023-04-08T20:59:57.689Z,100.00
2023-04-08T21:02:26.989Z,100.00
2023-04-08T21:04:55.053Z,100.00
2023-04-08T21:07:25.302Z,100.00
2023-04-08T21:09:53.285Z,100.00
2023-04-08T21:12:20.978Z,100.00
2023-04-08T21:14:50.855Z,100.00
2023-04-08T21:17:19.555Z,100.00
2023-04-08T21:19:48.601Z,100.00
2023-04-08T21:22:17.627Z,100.00
2023-04-08T21:24:45.333Z,100.00
2023-04-08T21:27:13.013Z,100.00
2023-04-08T21:29:40.757Z,100.00
2023-04-08T21:32:08.595Z,100.00
2023-04-08T21:34:36.268Z,100.00
2023-04-08T21:37:06.126Z,100.00
2023-04-08T21:39:33.787Z,100.00
2023-04-08T21:42:02.163Z,100.00
2023-04-08T21:44:29.830Z,100.00
2023-04-08T21:46:58.656Z,100.00
2023-04-08T21:49:29.684Z,100.00
2023-04-08T21:51:57.486Z,100.00
2023-04-08T21:54:26.598Z,100.00
2023-04-08T21:56:54.326Z,100.00
2023-04-08T21:59:22.213Z,100.00
2023-04-08T22:01:49.944Z,100.00
2023-04-08T22:04:19.595Z,100.00
2023-04-08T22:06:49.244Z,100.00
2023-04-08T22:09:17.399Z,100.00
2023-04-08T22:11:46.717Z,100.00
2023-04-08T22:14:15.411Z,100.00
2023-04-08T22:16:43.175Z,100.00
2023-04-08T22:19:10.957Z,100.00
2023-04-08T22:21:38.758Z,100.00
2023-04-08T22:24:06.681Z,100.00
2023-04-08T22:26:34.318Z,100.00
2023-04-08T22:29:03.473Z,100.00
2023-04-08T22:31:31.239Z,100.00
2023-04-08T22:33:58.934Z,100.00
2023-04-08T22:36:27.152Z,100.00
2023-04-08T22:38:54.793Z,100.00
2023-04-08T22:41:23.991Z,100.00
2023-04-08T22:43:51.870Z,100.00
2023-04-08T22:46:20.970Z,100.00
2023-04-08T22:48:49.464Z,100.00
2023-04-08T22:51:18.477Z,100.00
2023-04-08T22:53:46.181Z,100.00
2023-04-08T22:56:13.900Z,100.00
2023-04-08T22:58:41.598Z,100.00
2023-04-08T23:01:13.607Z,100.00
2023-04-08T23:03:42.747Z,100.00
2023-04-08T23:06:10.814Z,100.00
2023-04-08T23:08:39.025Z,100.00
2023-04-08T23:11:06.857Z,100.00
2023-04-08T23:13:35.258Z,100.00
2023-04-08T23:16:03.082Z,100.00
2023-04-08T23:18:30.857Z,100.00
2023-04-08T23:20:59.900Z,100.00
2023-04-08T23:23:27.625Z,100.00
2023-04-08T23:25:56.738Z,100.00
2023-04-08T23:28:24.605Z,100.00
2023-04-08T23:30:52.318Z,100.00
2023-04-08T23:33:20.027Z,100.00
2023-04-08T23:35:47.738Z,100.00
2023-04-08T23:38:16.780Z,100.00
2023-04-08T23:40:44.440Z,100.00
2023-04-08T23:43:12.100Z,100.00
2023-04-08T23:45:39.835Z,100.00
2023-04-08T23:48:10.070Z,100.00
2023-04-08T23:50:38.046Z,100.00
2023-04-08T23:53:05.754Z,100.00
2023-04-08T23:55:34.816Z,100.00
2023-04-08T23:58:02.475Z,100.00
